Terminal Aerodrome Forecast
Issued by NWS

Home | Current Version | Previous Version | Text Only | Print | Product List | Glossary On
Versions: 1 2 3 4 5 6 7 8 9 10 11 12
000
FTUS44 KTSA 252300
TAFXNA
TAF
KXNA 252325Z 2600/2624 17014G20KT P6SM BKN200
     FM260500 18014KT P6SM BKN200 WS020/21040KT
     FM261300 18014KT P6SM BKN015
     FM261800 19014KT 6SM -RA BKN015=

USA.gov is the U.S. government's official web portal to all federal, state and local government web resources and services.